createdAt,value
2023-01-30T00:00:36.752Z,15.93
2023-01-30T00:03:39.231Z,12.77
2023-01-30T00:06:41.899Z,12.93
2023-01-30T00:09:45.298Z,12.98
2023-01-30T00:12:48.463Z,12.32
2023-01-30T00:15:51.160Z,13.77
2023-01-30T00:18:54.239Z,13.13
2023-01-30T00:21:57.277Z,12.82
2023-01-30T00:25:00.116Z,12.43
2023-01-30T00:28:04.071Z,13.80
2023-01-30T00:31:06.985Z,12.63
2023-01-30T00:34:09.271Z,11.73
2023-01-30T00:37:11.599Z,14.25
2023-01-30T00:40:14.759Z,12.10
2023-01-30T00:43:18.266Z,13.25
2023-01-30T00:46:22.051Z,11.93
2023-01-30T00:49:24.891Z,11.15
2023-01-30T00:52:27.734Z,11.77
2023-01-30T00:55:30.315Z,10.80
2023-01-30T00:58:32.939Z,10.13
2023-01-30T01:01:36.882Z,10.63
2023-01-30T01:04:39.928Z,10.10
2023-01-30T01:07:42.590Z,9.93
2023-01-30T01:10:45.619Z,9.98
2023-01-30T01:13:48.352Z,9.13
2023-01-30T01:16:51.365Z,10.45
2023-01-30T01:19:54.262Z,9.07
2023-01-30T01:22:56.664Z,9.05
2023-01-30T01:25:59.245Z,7.85
2023-01-30T01:29:02.036Z,7.50
2023-01-30T01:32:05.213Z,8.50
2023-01-30T01:35:08.177Z,7.85
2023-01-30T01:38:10.629Z,9.10
2023-01-30T01:41:15.366Z,8.27
2023-01-30T01:44:18.290Z,8.18
2023-01-30T01:47:21.344Z,8.10
2023-01-30T01:50:24.590Z,8.52
2023-01-30T01:53:28.015Z,8.20
2023-01-30T01:56:30.582Z,7.10
2023-01-30T01:59:33.619Z,8.57
2023-01-30T02:02:35.932Z,8.32
2023-01-30T02:05:38.554Z,7.15
2023-01-30T02:08:41.050Z,7.40
2023-01-30T02:11:43.827Z,7.32
2023-01-30T02:14:46.975Z,7.93
2023-01-30T02:17:50.505Z,7.35
2023-01-30T02:20:52.820Z,5.88
2023-01-30T02:23:56.379Z,8.05
2023-01-30T02:26:59.339Z,7.13
2023-01-30T02:30:02.239Z,6.07
2023-01-30T02:33:05.039Z,6.30
2023-01-30T02:36:08.095Z,6.88
2023-01-30T02:39:10.963Z,7.45
2023-01-30T02:42:14.500Z,7.22
2023-01-30T02:45:17.862Z,7.63
2023-01-30T02:48:20.371Z,6.35
2023-01-30T02:51:22.770Z,6.40
2023-01-30T02:54:25.187Z,7.65
2023-01-30T02:57:28.269Z,7.10
2023-01-30T03:00:35.500Z,5.20
2023-01-30T03:03:38.947Z,5.85
2023-01-30T03:06:41.956Z,6.50
2023-01-30T03:09:44.741Z,7.00
2023-01-30T03:12:47.424Z,5.28
2023-01-30T03:15:50.048Z,5.97
2023-01-30T03:18:53.135Z,4.97
2023-01-30T03:21:55.231Z,4.90
2023-01-30T03:24:59.269Z,5.70
2023-01-30T03:28:02.026Z,5.43
2023-01-30T03:31:04.628Z,5.72
2023-01-30T03:34:07.346Z,6.47
2023-01-30T03:37:10.789Z,5.40
2023-01-30T03:40:13.496Z,5.05
2023-01-30T03:43:16.316Z,4.38
2023-01-30T03:46:18.765Z,6.80
2023-01-30T03:49:21.563Z,4.93
2023-01-30T03:52:24.148Z,5.22
2023-01-30T03:55:26.366Z,5.70
2023-01-30T03:58:28.561Z,5.70
2023-01-30T04:01:32.605Z,4.43
2023-01-30T04:04:35.217Z,4.05
2023-01-30T04:07:40.774Z,4.60
2023-01-30T04:10:45.252Z,4.97
2023-01-30T04:13:48.741Z,4.85
2023-01-30T04:16:51.949Z,3.72
2023-01-30T04:20:17.348Z,5.18
2023-01-30T04:23:25.137Z,3.63
2023-01-30T04:26:27.555Z,4.95
2023-01-30T04:29:30.627Z,4.32
2023-01-30T04:32:35.705Z,3.92
2023-01-30T04:35:38.477Z,4.25
2023-01-30T04:38:41.447Z,3.47
2023-01-30T04:41:44.145Z,4.25
2023-01-30T04:44:47.171Z,3.58
2023-01-30T04:47:54.221Z,4.28
2023-01-30T04:50:56.986Z,3.95
2023-01-30T04:54:00.303Z,3.22
2023-01-30T04:57:03.230Z,4.03
2023-01-30T05:00:06.466Z,6.25
2023-01-30T05:03:12.094Z,4.18
2023-01-30T05:06:15.002Z,3.42
2023-01-30T05:09:17.201Z,3.08
2023-01-30T05:12:20.227Z,3.05
2023-01-30T05:15:23.116Z,4.32
2023-01-30T05:18:26.100Z,3.03
2023-01-30T05:21:28.951Z,2.63
2023-01-30T05:24:31.575Z,2.92
2023-01-30T05:27:34.050Z,3.47
2023-01-30T05:30:38.548Z,5.60
2023-01-30T05:33:41.824Z,3.47
2023-01-30T05:36:45.476Z,3.97
2023-01-30T05:39:47.752Z,3.95
2023-01-30T05:42:50.120Z,3.15
2023-01-30T05:45:52.675Z,4.65
2023-01-30T05:48:55.774Z,4.28
2023-01-30T05:51:58.108Z,4.50
2023-01-30T05:55:00.881Z,2.60
2023-01-30T05:58:03.963Z,3.70
2023-01-30T06:01:06.521Z,4.88
2023-01-30T06:04:09.222Z,4.18
2023-01-30T06:07:12.170Z,4.18
2023-01-30T06:10:15.087Z,4.40
2023-01-30T06:13:17.358Z,4.25
2023-01-30T06:16:20.177Z,5.28
2023-01-30T06:19:22.482Z,4.60
2023-01-30T06:22:25.527Z,5.75
2023-01-30T06:25:28.452Z,5.82
2023-01-30T06:28:31.583Z,5.05
2023-01-30T06:31:34.555Z,5.90
2023-01-30T06:34:38.082Z,3.92
2023-01-30T06:37:41.506Z,2.40
2023-01-30T06:40:44.202Z,3.10
2023-01-30T06:43:46.735Z,5.07
2023-01-30T06:46:49.744Z,3.55
2023-01-30T06:49:52.888Z,5.70
2023-01-30T06:52:55.791Z,5.07
2023-01-30T06:55:58.823Z,4.50
2023-01-30T06:59:01.451Z,5.35
2023-01-30T07:02:04.040Z,4.85
2023-01-30T07:05:06.874Z,3.72
2023-01-30T07:08:09.412Z,3.40
2023-01-30T07:11:12.111Z,3.58
2023-01-30T07:14:15.239Z,4.28
2023-01-30T07:17:19.075Z,4.22
2023-01-30T07:20:22.079Z,3.70
2023-01-30T07:23:24.765Z,4.38
2023-01-30T07:26:27.198Z,3.13
2023-01-30T07:29:29.674Z,4.00
2023-01-30T07:32:32.143Z,4.13
2023-01-30T07:35:34.810Z,3.97
2023-01-30T07:38:38.214Z,4.20
2023-01-30T07:41:40.746Z,4.38
2023-01-30T07:44:46.018Z,3.25
2023-01-30T07:47:48.952Z,4.53
2023-01-30T07:50:52.097Z,4.45
2023-01-30T07:53:54.767Z,4.40
2023-01-30T07:56:57.423Z,5.90
2023-01-30T07:59:59.673Z,3.88
2023-01-30T08:03:02.247Z,5.53
2023-01-30T08:06:05.497Z,6.13
2023-01-30T08:09:08.579Z,4.95
2023-01-30T08:12:11.641Z,6.10
2023-01-30T08:15:14.694Z,6.13
2023-01-30T08:18:16.923Z,4.93
2023-01-30T08:21:19.547Z,6.55
2023-01-30T08:24:22.625Z,6.28
2023-01-30T08:27:26.123Z,7.43
2023-01-30T08:30:28.527Z,7.20
2023-01-30T08:33:31.334Z,6.50
2023-01-30T08:36:34.434Z,4.68
2023-01-30T08:39:37.511Z,6.50
2023-01-30T08:42:39.696Z,6.03
2023-01-30T08:45:41.975Z,4.53
2023-01-30T08:48:49.995Z,4.45
2023-01-30T08:51:52.577Z,6.20
2023-01-30T08:54:55.310Z,5.82
2023-01-30T08:57:57.931Z,7.38
2023-01-30T09:01:00.215Z,5.60
2023-01-30T09:04:02.635Z,6.35
2023-01-30T09:07:06.312Z,5.90
2023-01-30T09:10:09.496Z,7.00
2023-01-30T09:13:12.992Z,5.82
2023-01-30T09:16:16.237Z,7.40
2023-01-30T09:19:20.103Z,4.22
2023-01-30T09:22:22.831Z,6.20
2023-01-30T09:25:26.351Z,5.55
2023-01-30T09:28:28.969Z,5.22
2023-01-30T09:31:31.979Z,5.35
2023-01-30T09:34:34.876Z,5.60
2023-01-30T09:37:38.170Z,4.68
2023-01-30T09:40:40.487Z,5.32
2023-01-30T09:43:42.780Z,4.00
2023-01-30T09:46:45.876Z,5.47
2023-01-30T09:49:49.225Z,4.93
2023-01-30T09:52:53.373Z,6.03
2023-01-30T09:55:56.757Z,6.40
2023-01-30T09:58:59.580Z,4.93
2023-01-30T10:02:01.763Z,4.95
2023-01-30T10:05:05.099Z,4.95
2023-01-30T10:08:07.657Z,5.68
2023-01-30T10:11:10.986Z,5.03
2023-01-30T10:14:13.601Z,5.80
2023-01-30T10:17:16.417Z,5.63
2023-01-30T10:20:19.055Z,7.20
2023-01-30T10:23:22.465Z,7.45
2023-01-30T10:26:24.800Z,6.57
2023-01-30T10:29:27.478Z,5.43
2023-01-30T10:32:30.313Z,5.47
2023-01-30T10:35:33.023Z,5.45
2023-01-30T10:38:35.874Z,7.28
2023-01-30T10:41:38.566Z,5.78
2023-01-30T10:44:41.620Z,5.63
2023-01-30T10:47:47.451Z,4.13
2023-01-30T10:50:50.279Z,5.07
2023-01-30T10:53:54.489Z,6.47
2023-01-30T10:56:57.707Z,5.70
2023-01-30T11:00:01.160Z,6.68
2023-01-30T11:03:04.435Z,5.47
2023-01-30T11:06:06.902Z,6.75
2023-01-30T11:09:10.466Z,5.45
2023-01-30T11:12:14.149Z,8.05
2023-01-30T11:15:17.570Z,6.35
2023-01-30T11:19:14.112Z,6.05
2023-01-30T11:21:44.603Z,5.35
2023-01-30T11:24:47.077Z,6.13
2023-01-30T11:27:49.697Z,6.00
2023-01-30T11:30:52.171Z,5.75
2023-01-30T11:33:55.123Z,5.28
2023-01-30T11:36:57.854Z,6.63
2023-01-30T11:40:00.765Z,6.35
2023-01-30T11:43:03.457Z,9.25
2023-01-30T11:46:05.958Z,6.75
2023-01-30T11:49:47.246Z,6.13
2023-01-30T11:52:31.780Z,6.05
2023-01-30T11:55:34.837Z,6.55
2023-01-30T11:58:37.952Z,7.88
2023-01-30T12:01:41.900Z,6.78
2023-01-30T12:04:44.202Z,5.60
2023-01-30T12:07:46.941Z,7.60
2023-01-30T12:10:49.796Z,6.70
2023-01-30T12:13:52.537Z,8.13
2023-01-30T12:16:54.941Z,5.30
2023-01-30T12:19:57.612Z,8.52
2023-01-30T12:23:00.654Z,12.35
2023-01-30T12:26:03.500Z,7.15
2023-01-30T12:29:06.473Z,9.05
2023-01-30T12:32:11.932Z,8.20
2023-01-30T12:35:14.729Z,9.70
2023-01-30T12:38:17.354Z,6.63
2023-01-30T12:41:20.806Z,7.75
2023-01-30T12:44:23.998Z,5.72
2023-01-30T12:47:26.634Z,5.53
2023-01-30T12:50:30.087Z,6.57
2023-01-30T12:53:32.882Z,5.68
2023-01-30T12:56:35.393Z,6.03
2023-01-30T12:59:38.345Z,8.93
2023-01-30T13:02:41.024Z,9.32
2023-01-30T13:05:43.768Z,10.88
2023-01-30T13:08:46.589Z,8.35
2023-01-30T13:11:48.999Z,7.82
2023-01-30T13:14:51.803Z,6.88
2023-01-30T13:17:54.884Z,7.45
2023-01-30T13:21:00.361Z,8.50
2023-01-30T13:24:03.567Z,7.43
2023-01-30T13:27:06.836Z,8.48
2023-01-30T13:30:09.823Z,6.55
2023-01-30T13:33:13.187Z,7.28
2023-01-30T13:36:16.267Z,6.30
2023-01-30T13:39:18.812Z,8.90
2023-01-30T13:42:21.231Z,7.20
2023-01-30T13:45:25.496Z,8.75
2023-01-30T13:48:28.447Z,7.28
2023-01-30T13:51:31.466Z,7.07
2023-01-30T13:54:34.566Z,5.60
2023-01-30T13:57:37.647Z,8.35
2023-01-30T14:00:40.194Z,9.48
2023-01-30T14:03:43.332Z,8.60
2023-01-30T14:06:46.468Z,7.03
2023-01-30T14:09:49.919Z,6.95
2023-01-30T14:12:52.124Z,7.35
2023-01-30T14:15:54.450Z,7.85
2023-01-30T14:18:57.708Z,7.10
2023-01-30T14:22:01.566Z,5.85
2023-01-30T14:25:03.885Z,7.85
2023-01-30T14:28:06.252Z,6.53
2023-01-30T14:31:09.147Z,6.95
2023-01-30T14:34:12.355Z,6.75
2023-01-30T14:37:15.819Z,5.50
2023-01-30T14:40:18.946Z,8.25
2023-01-30T14:43:21.999Z,9.23
2023-01-30T14:46:24.802Z,7.90
2023-01-30T14:49:27.969Z,8.48
2023-01-30T14:52:31.502Z,5.35
2023-01-30T14:55:34.928Z,8.57
2023-01-30T14:58:37.857Z,7.85
2023-01-30T15:01:40.824Z,7.60
2023-01-30T15:04:43.524Z,8.05
2023-01-30T15:07:46.977Z,6.00
2023-01-30T15:10:51.106Z,7.97
2023-01-30T15:13:54.304Z,6.65
2023-01-30T15:17:00.341Z,5.35
2023-01-30T15:20:02.626Z,8.80
2023-01-30T15:23:04.880Z,8.32
2023-01-30T15:26:07.587Z,7.97
2023-01-30T15:29:10.198Z,7.43
2023-01-30T15:32:12.931Z,8.95
2023-01-30T15:35:16.547Z,7.05
2023-01-30T15:38:19.242Z,7.03
2023-01-30T15:41:21.459Z,9.02
2023-01-30T15:44:23.812Z,7.20
2023-01-30T15:47:27.076Z,7.43
2023-01-30T15:50:29.355Z,7.95
2023-01-30T15:53:32.753Z,6.65
2023-01-30T15:56:36.154Z,6.70
2023-01-30T15:59:39.549Z,7.53
2023-01-30T16:02:43.530Z,5.95
2023-01-30T16:05:47.041Z,9.07
2023-01-30T16:08:51.298Z,8.30
2023-01-30T16:11:54.843Z,7.57
2023-01-30T16:15:05.751Z,6.43
2023-01-30T16:18:14.719Z,6.90
2023-01-30T16:21:17.237Z,5.47
2023-01-30T16:24:19.564Z,8.30
2023-01-30T16:27:22.695Z,6.88
2023-01-30T16:30:25.737Z,6.45
2023-01-30T16:33:28.023Z,4.43
2023-01-30T16:36:30.461Z,6.03
2023-01-30T16:39:33.167Z,4.97
2023-01-30T16:42:36.454Z,5.07
2023-01-30T16:45:40.473Z,5.20
2023-01-30T16:48:44.129Z,6.05
2023-01-30T16:51:47.492Z,5.78
2023-01-30T16:54:50.739Z,5.53
2023-01-30T16:57:54.502Z,5.13
2023-01-30T17:00:57.610Z,4.72
2023-01-30T17:04:00.666Z,4.50
2023-01-30T17:07:03.418Z,5.68
2023-01-30T17:10:06.188Z,4.80
2023-01-30T17:13:08.936Z,6.97
2023-01-30T17:16:12.021Z,7.57
2023-01-30T17:19:15.534Z,6.60
2023-01-30T17:22:18.842Z,4.82
2023-01-30T17:25:22.290Z,7.07
2023-01-30T17:28:25.543Z,7.07
2023-01-30T17:31:30.355Z,6.07
2023-01-30T17:34:33.959Z,5.57
2023-01-30T17:37:37.209Z,7.38
2023-01-30T17:40:40.748Z,4.40
2023-01-30T17:43:43.615Z,5.55
2023-01-30T17:46:46.161Z,5.60
2023-01-30T17:49:48.860Z,6.20
2023-01-30T17:52:51.414Z,7.53
2023-01-30T17:55:54.573Z,3.92
2023-01-30T17:58:57.190Z,4.80
2023-01-30T18:01:59.260Z,5.13
2023-01-30T18:05:02.380Z,5.32
2023-01-30T18:08:05.939Z,4.03
2023-01-30T18:11:08.164Z,3.50
2023-01-30T18:14:10.876Z,5.57
2023-01-30T18:17:13.441Z,4.22
2023-01-30T18:20:16.835Z,5.15
2023-01-30T18:23:19.526Z,4.18
2023-01-30T18:26:21.836Z,5.68
2023-01-30T18:29:24.593Z,5.35
2023-01-30T18:32:27.331Z,6.68
2023-01-30T18:35:29.672Z,3.75
2023-01-30T18:38:32.634Z,4.70
2023-01-30T18:41:35.567Z,6.10
2023-01-30T18:44:38.392Z,4.80
2023-01-30T18:47:41.747Z,4.75
2023-01-30T18:50:44.680Z,5.63
2023-01-30T18:53:46.983Z,5.13
2023-01-30T18:56:49.560Z,5.07
2023-01-30T18:59:52.817Z,5.18
2023-01-30T19:02:56.345Z,4.70
2023-01-30T19:06:00.036Z,4.25
2023-01-30T19:09:03.199Z,7.05
2023-01-30T19:12:06.942Z,5.18
2023-01-30T19:15:09.411Z,5.03
2023-01-30T19:18:11.925Z,5.80
2023-01-30T19:21:14.748Z,5.10
2023-01-30T19:24:17.008Z,6.32
2023-01-30T19:27:19.742Z,6.50
2023-01-30T19:30:22.553Z,5.78
2023-01-30T19:33:27.180Z,5.32
2023-01-30T19:36:31.306Z,6.20
2023-01-30T19:39:38.321Z,5.32
2023-01-30T19:42:44.491Z,4.72
2023-01-30T19:45:47.356Z,4.93
2023-01-30T19:48:50.038Z,5.20
2023-01-30T19:51:53.579Z,4.15
2023-01-30T19:54:57.039Z,3.92
2023-01-30T19:57:59.738Z,3.55
2023-01-30T20:01:02.444Z,5.00
2023-01-30T20:04:05.476Z,3.80
2023-01-30T20:07:08.934Z,4.88
2023-01-30T20:10:11.412Z,5.88
2023-01-30T20:13:13.739Z,3.95
2023-01-30T20:16:16.680Z,5.03
2023-01-30T20:19:19.932Z,3.60
2023-01-30T20:22:22.443Z,3.67
2023-01-30T20:25:25.024Z,3.53
2023-01-30T20:28:28.094Z,4.00
2023-01-30T20:31:31.618Z,3.22
2023-01-30T20:34:35.844Z,4.07
2023-01-30T20:37:38.506Z,3.88
2023-01-30T20:40:41.259Z,4.22
2023-01-30T20:43:44.038Z,3.75
2023-01-30T20:46:47.117Z,5.90
2023-01-30T20:49:50.254Z,6.45
2023-01-30T20:52:53.471Z,4.88
2023-01-30T20:55:56.364Z,4.47
2023-01-30T20:58:59.749Z,4.63
2023-01-30T21:02:03.171Z,5.18
2023-01-30T21:05:05.664Z,5.53
2023-01-30T21:08:08.102Z,4.88
2023-01-30T21:11:11.151Z,4.63
2023-01-30T21:14:13.970Z,5.10
2023-01-30T21:17:17.013Z,4.65
2023-01-30T21:20:19.952Z,4.50
2023-01-30T21:23:23.037Z,4.90
2023-01-30T21:26:25.608Z,4.53
2023-01-30T21:29:27.833Z,3.78
2023-01-30T21:32:30.312Z,4.43
2023-01-30T21:35:33.808Z,3.45
2023-01-30T21:38:37.231Z,4.13
2023-01-30T21:41:40.479Z,3.58
2023-01-30T21:44:43.164Z,4.47
2023-01-30T21:47:45.895Z,5.20
2023-01-30T21:50:49.147Z,4.95
2023-01-30T21:53:50.907Z,4.78
2023-01-30T21:56:53.264Z,4.22
2023-01-30T21:59:56.378Z,3.95
2023-01-30T22:02:59.366Z,3.92
2023-01-30T22:06:02.569Z,5.10
2023-01-30T22:09:06.375Z,6.13
2023-01-30T22:12:09.385Z,6.10
2023-01-30T22:15:11.630Z,3.13
2023-01-30T22:18:13.830Z,4.43
2023-01-30T22:21:16.607Z,4.70
2023-01-30T22:24:19.073Z,3.08
2023-01-30T22:27:22.276Z,4.18
2023-01-30T22:30:25.719Z,5.50
2023-01-30T22:33:29.081Z,4.60
2023-01-30T22:36:31.494Z,5.78
2023-01-30T22:39:34.586Z,4.25
2023-01-30T22:42:37.243Z,4.43
2023-01-30T22:45:39.787Z,6.85
2023-01-30T22:48:42.832Z,5.68
2023-01-30T22:51:45.892Z,4.18
2023-01-30T22:54:48.668Z,4.93
2023-01-30T22:57:51.303Z,4.05
2023-01-30T23:00:53.724Z,4.35
2023-01-30T23:03:56.344Z,3.53
2023-01-30T23:06:58.665Z,4.38
2023-01-30T23:10:01.581Z,5.10
2023-01-30T23:13:05.600Z,3.38
2023-01-30T23:16:08.447Z,3.38
2023-01-30T23:19:11.739Z,3.92
2023-01-30T23:22:14.645Z,3.08
2023-01-30T23:25:18.055Z,4.07
2023-01-30T23:28:20.811Z,4.90
2023-01-30T23:31:23.935Z,6.45
2023-01-30T23:34:27.003Z,4.25
2023-01-30T23:37:29.529Z,5.15
2023-01-30T23:40:32.155Z,5.32
2023-01-30T23:43:36.365Z,4.07
2023-01-30T23:46:39.299Z,4.63
2023-01-30T23:49:42.154Z,5.70
2023-01-30T23:52:44.697Z,3.60
2023-01-30T23:55:47.408Z,5.15
2023-01-30T23:58:49.603Z,3.72
